createdAt,value
2023-05-11T00:01:16.301Z,74.40
2023-05-11T00:03:43.232Z,74.40
2023-05-11T00:06:10.117Z,74.40
2023-05-11T00:08:37.094Z,74.50
2023-05-11T00:11:07.373Z,74.60
2023-05-11T00:13:34.107Z,74.60
2023-05-11T00:16:01.206Z,74.50
2023-05-11T00:18:27.930Z,74.50
2023-05-11T00:20:54.761Z,74.50
2023-05-11T00:23:21.386Z,74.50
2023-05-11T00:25:48.116Z,74.50
2023-05-11T00:28:14.801Z,74.60
2023-05-11T00:30:41.511Z,74.70
2023-05-11T00:33:08.238Z,74.70
2023-05-11T00:35:35.042Z,74.70
2023-05-11T00:38:01.719Z,74.70
2023-05-11T00:40:28.750Z,74.80
2023-05-11T00:42:55.351Z,74.90
2023-05-11T00:45:22.097Z,74.90
2023-05-11T00:47:48.808Z,75.00
2023-05-11T00:50:15.977Z,75.10
2023-05-11T00:52:43.076Z,75.10
2023-05-11T00:55:10.267Z,75.20
2023-05-11T00:57:38.077Z,75.20
2023-05-11T01:00:05.560Z,75.20
2023-05-11T01:02:32.733Z,75.20
2023-05-11T01:05:00.176Z,75.30
2023-05-11T01:07:43.777Z,75.30
2023-05-11T01:10:14.191Z,75.40
2023-05-11T01:12:52.868Z,75.30
2023-05-11T01:15:25.986Z,75.30
2023-05-11T01:17:55.965Z,75.30
2023-05-11T01:20:29.331Z,75.90
2023-05-11T01:23:02.272Z,75.30
2023-05-11T01:25:29.484Z,75.30
2023-05-11T01:28:10.093Z,75.20
2023-05-11T01:30:43.055Z,75.30
2023-05-11T01:33:12.493Z,75.20
2023-05-11T01:35:42.830Z,75.30
2023-05-11T01:38:11.971Z,75.30
2023-05-11T01:40:39.586Z,75.30
2023-05-11T01:43:19.656Z,75.30
2023-05-11T01:45:49.830Z,75.30
2023-05-11T01:48:20.164Z,75.40
2023-05-11T01:50:48.533Z,75.30
2023-05-11T01:53:17.428Z,75.30
2023-05-11T01:55:45.851Z,75.20
2023-05-11T01:58:14.948Z,75.20
2023-05-11T02:00:43.529Z,75.20
2023-05-11T02:03:11.412Z,75.20
2023-05-11T02:05:39.083Z,75.30
2023-05-11T02:08:06.700Z,75.40
2023-05-11T02:10:34.267Z,75.40
2023-05-11T02:13:03.736Z,75.30
2023-05-11T02:15:31.253Z,75.40
2023-05-11T02:17:58.968Z,75.50
2023-05-11T02:20:26.191Z,75.50
2023-05-11T02:22:53.797Z,75.50
2023-05-11T02:25:21.380Z,75.60
2023-05-11T02:27:48.661Z,75.60
2023-05-11T02:30:15.777Z,75.70
2023-05-11T02:32:47.750Z,75.60
2023-05-11T02:35:17.476Z,75.70
2023-05-11T02:37:46.434Z,75.70
2023-05-11T02:40:19.333Z,75.60
2023-05-11T02:42:50.869Z,75.70
2023-05-11T02:45:17.692Z,75.80
2023-05-11T02:47:51.806Z,75.90
2023-05-11T02:50:22.496Z,76.00
2023-05-11T02:52:49.619Z,76.00
2023-05-11T02:55:17.269Z,76.10
2023-05-11T02:57:44.682Z,76.10
2023-05-11T03:00:12.726Z,75.90
2023-05-11T03:02:40.252Z,75.90
2023-05-11T03:05:07.208Z,75.90
2023-05-11T03:07:35.095Z,75.90
2023-05-11T03:10:02.650Z,75.90
2023-05-11T03:12:35.111Z,76.00
2023-05-11T03:15:03.944Z,76.90
2023-05-11T03:17:33.326Z,76.00
2023-05-11T03:20:03.585Z,76.00
2023-05-11T03:22:31.772Z,76.10
2023-05-11T03:24:59.086Z,76.10
2023-05-11T03:27:27.238Z,76.10
2023-05-11T03:29:54.470Z,76.10
2023-05-11T03:32:21.370Z,76.20
2023-05-11T03:34:49.532Z,76.10
2023-05-11T03:37:19.134Z,76.10
2023-05-11T03:39:47.721Z,76.20
2023-05-11T03:42:15.489Z,76.20
2023-05-11T03:44:44.246Z,76.30
2023-05-11T03:47:11.384Z,76.10
2023-05-11T03:49:38.701Z,76.10
2023-05-11T03:52:05.962Z,76.10
2023-05-11T03:54:32.868Z,76.20
2023-05-11T03:56:59.561Z,76.10
2023-05-11T03:59:26.413Z,76.10
2023-05-11T04:01:53.933Z,76.30
2023-05-11T04:04:21.375Z,76.30
2023-05-11T04:06:48.101Z,76.40
2023-05-11T04:09:20.643Z,76.50
2023-05-11T04:11:47.517Z,76.40
2023-05-11T04:14:14.243Z,76.50
2023-05-11T04:16:42.289Z,76.50
2023-05-11T04:19:08.978Z,76.50
2023-05-11T04:21:38.849Z,76.50
2023-05-11T04:24:06.272Z,76.60
2023-05-11T04:26:35.174Z,76.50
2023-05-11T04:29:01.956Z,76.60
2023-05-11T04:31:30.294Z,76.60
2023-05-11T04:33:58.160Z,76.70
2023-05-11T04:36:25.093Z,76.80
2023-05-11T04:38:53.090Z,76.90
2023-05-11T04:41:20.786Z,77.00
2023-05-11T04:43:47.968Z,76.90
2023-05-11T04:46:15.399Z,76.90
2023-05-11T04:48:42.520Z,76.90
2023-05-11T04:51:09.862Z,76.90
2023-05-11T04:53:42.429Z,76.90
2023-05-11T04:56:10.025Z,76.80
2023-05-11T04:58:36.716Z,76.80
2023-05-11T05:01:04.117Z,76.90
2023-05-11T05:03:31.129Z,77.00
2023-05-11T05:05:57.972Z,77.10
2023-05-11T05:08:24.697Z,77.20
2023-05-11T05:10:51.619Z,77.10
2023-05-11T05:13:18.489Z,77.30
2023-05-11T05:15:45.332Z,77.30
2023-05-11T05:18:12.210Z,77.20
2023-05-11T05:20:39.773Z,77.20
2023-05-11T05:23:06.814Z,77.30
2023-05-11T05:25:34.124Z,77.30
2023-05-11T05:28:01.509Z,77.40
2023-05-11T05:30:28.389Z,77.60
2023-05-11T05:32:55.246Z,77.50
2023-05-11T05:35:22.241Z,77.50
2023-05-11T05:37:49.413Z,77.40
2023-05-11T05:40:17.419Z,77.50
2023-05-11T05:42:51.016Z,77.40
2023-05-11T05:45:21.568Z,77.40
2023-05-11T05:47:51.553Z,77.30
2023-05-11T05:50:19.434Z,77.20
2023-05-11T05:52:46.951Z,77.10
2023-05-11T05:55:14.369Z,77.00
2023-05-11T05:57:42.679Z,77.10
2023-05-11T06:00:10.637Z,77.20
2023-05-11T06:02:40.032Z,77.30
2023-05-11T06:05:08.729Z,77.30
2023-05-11T06:07:35.796Z,77.40
2023-05-11T06:10:02.562Z,77.30
2023-05-11T06:12:31.120Z,77.30
2023-05-11T06:14:58.021Z,77.50
2023-05-11T06:17:25.358Z,77.50
2023-05-11T06:19:52.237Z,77.60
2023-05-11T06:22:23.178Z,77.90
2023-05-11T06:24:50.955Z,77.90
2023-05-11T06:27:19.800Z,78.00
2023-05-11T06:29:46.898Z,78.10
2023-05-11T06:32:15.643Z,78.20
2023-05-11T06:34:43.110Z,78.30
2023-05-11T06:37:10.839Z,78.40
2023-05-11T06:39:37.696Z,78.60
2023-05-11T06:42:08.066Z,78.60
2023-05-11T06:44:35.193Z,78.70
2023-05-11T06:47:02.050Z,78.90
2023-05-11T06:49:28.904Z,78.90
2023-05-11T06:51:55.689Z,79.20
2023-05-11T06:54:22.543Z,79.30
2023-05-11T06:56:49.171Z,79.30
2023-05-11T06:59:16.004Z,79.30
2023-05-11T07:01:42.829Z,79.20
2023-05-11T07:04:09.704Z,79.10
2023-05-11T07:06:36.532Z,79.10
2023-05-11T07:09:03.698Z,79.10
2023-05-11T07:11:31.376Z,79.30
2023-05-11T07:13:58.197Z,79.30
2023-05-11T07:16:24.902Z,79.50
2023-05-11T07:18:51.629Z,79.60
2023-05-11T07:21:18.609Z,79.60
2023-05-11T07:23:45.428Z,79.60
2023-05-11T07:26:14.128Z,79.80
2023-05-11T07:28:41.206Z,79.70
2023-05-11T07:31:08.098Z,79.80
2023-05-11T07:33:36.795Z,79.70
2023-05-11T07:36:05.605Z,79.70
2023-05-11T07:38:32.494Z,79.70
2023-05-11T07:40:59.326Z,79.50
2023-05-11T07:43:26.903Z,79.40
2023-05-11T07:45:53.717Z,79.40
2023-05-11T07:48:20.795Z,79.50
2023-05-11T07:50:47.510Z,79.70
2023-05-11T07:53:14.297Z,80.00
2023-05-11T07:55:41.105Z,80.10
2023-05-11T07:58:08.025Z,80.30
2023-05-11T08:00:34.829Z,80.80
2023-05-11T08:03:01.949Z,81.20
2023-05-11T08:05:29.376Z,81.40
2023-05-11T08:07:56.132Z,81.40
2023-05-11T08:10:25.142Z,81.40
2023-05-11T08:12:51.999Z,81.50
2023-05-11T08:15:18.854Z,81.20
2023-05-11T08:17:46.452Z,81.20
2023-05-11T08:20:13.317Z,81.20
2023-05-11T08:22:40.177Z,82.00
2023-05-11T08:25:07.272Z,81.10
2023-05-11T08:27:34.171Z,81.10
2023-05-11T08:30:04.025Z,81.10
2023-05-11T08:32:31.331Z,81.20
2023-05-11T08:34:58.294Z,81.60
2023-05-11T08:37:25.265Z,81.70
2023-05-11T08:39:51.965Z,81.80
2023-05-11T08:42:19.393Z,81.90
2023-05-11T08:44:48.405Z,82.00
2023-05-11T08:49:45.061Z,82.30
2023-05-11T08:52:12.660Z,82.30
2023-05-11T08:54:39.428Z,82.30
2023-05-11T08:57:07.054Z,82.30
2023-05-11T08:59:34.220Z,82.60
2023-05-11T09:02:01.009Z,82.50
2023-05-11T09:04:27.930Z,82.80
2023-05-11T09:06:55.471Z,82.90
2023-05-11T09:09:22.979Z,82.80
2023-05-11T09:11:49.854Z,82.60
2023-05-11T09:14:16.821Z,82.40
2023-05-11T09:16:44.101Z,81.70
2023-05-11T09:19:14.181Z,81.50
2023-05-11T09:21:41.236Z,81.70
2023-05-11T09:24:10.913Z,81.60
2023-05-11T09:26:37.640Z,81.30
2023-05-11T09:29:04.560Z,81.20
2023-05-11T09:31:34.271Z,80.90
2023-05-11T09:34:20.790Z,80.60
2023-05-11T09:36:48.783Z,80.60
2023-05-11T09:39:16.763Z,80.40
2023-05-11T09:41:43.801Z,80.80
2023-05-11T09:44:15.129Z,80.70
2023-05-11T09:46:42.795Z,80.80
2023-05-11T09:49:09.626Z,80.70
2023-05-11T09:51:37.606Z,80.40
2023-05-11T09:54:16.656Z,79.90
2023-05-11T09:56:50.794Z,79.50
2023-05-11T09:59:35.853Z,79.50
2023-05-11T10:02:22.746Z,79.10
2023-05-11T10:04:53.878Z,79.20
2023-05-11T10:07:30.720Z,79.20
2023-05-11T10:09:58.600Z,79.10
2023-05-11T10:12:25.920Z,78.70
2023-05-11T10:14:54.909Z,78.70
2023-05-11T10:17:21.867Z,78.90
2023-05-11T10:19:48.959Z,78.70
2023-05-11T10:22:17.325Z,78.50
2023-05-11T10:24:44.156Z,78.30
2023-05-11T10:27:12.057Z,78.40
2023-05-11T10:29:39.028Z,78.50
2023-05-11T10:32:07.206Z,78.30
2023-05-11T10:34:34.051Z,78.10
2023-05-11T10:37:01.681Z,78.10
2023-05-11T10:39:31.964Z,78.30
2023-05-11T10:42:11.484Z,78.30
2023-05-11T10:44:40.338Z,78.20
2023-05-11T10:47:24.153Z,78.10
2023-05-11T10:50:13.331Z,78.30
2023-05-11T10:53:06.101Z,78.30
2023-05-11T10:55:41.708Z,78.20
2023-05-11T10:58:10.678Z,78.20
2023-05-11T11:00:56.792Z,78.00
2023-05-11T11:03:23.692Z,77.80
2023-05-11T11:05:50.852Z,77.70
2023-05-11T11:08:17.640Z,77.60
2023-05-11T11:10:46.320Z,77.50
2023-05-11T11:13:14.449Z,77.20
2023-05-11T11:15:53.802Z,76.90
2023-05-11T11:18:21.716Z,77.00
2023-05-11T11:20:49.662Z,76.80
2023-05-11T11:23:49.949Z,76.90
2023-05-11T11:26:19.112Z,77.10
2023-05-11T11:28:56.872Z,77.90
2023-05-11T11:31:27.997Z,78.30
2023-05-11T11:34:00.827Z,78.30
2023-05-11T11:37:06.171Z,78.50
2023-05-11T11:39:41.767Z,78.30
2023-05-11T11:42:12.300Z,78.10
2023-05-11T11:44:39.864Z,78.20
2023-05-11T11:47:13.686Z,78.60
2023-05-11T11:49:41.537Z,78.80
2023-05-11T11:52:32.006Z,78.90
2023-05-11T11:55:02.350Z,79.20
2023-05-11T11:57:32.494Z,78.90
2023-05-11T12:00:00.213Z,79.00
2023-05-11T12:02:27.620Z,79.10
2023-05-11T12:05:00.097Z,79.20
2023-05-11T12:07:27.095Z,79.50
2023-05-11T12:09:53.908Z,79.90
2023-05-11T12:12:21.169Z,80.50
2023-05-11T12:14:51.205Z,80.60
2023-05-11T12:17:25.959Z,80.40
2023-05-11T12:19:55.226Z,80.60
2023-05-11T12:22:23.025Z,81.10
2023-05-11T12:24:50.027Z,81.50
2023-05-11T12:27:17.573Z,81.60
2023-05-11T12:29:48.657Z,81.70
2023-05-11T12:32:28.561Z,81.70
2023-05-11T12:34:59.312Z,81.30
2023-05-11T12:37:28.535Z,81.20
2023-05-11T12:39:56.150Z,80.90
2023-05-11T12:42:22.913Z,80.60
2023-05-11T12:44:52.359Z,80.40
2023-05-11T12:47:20.225Z,80.30
2023-05-11T12:49:46.917Z,80.30
2023-05-11T12:52:13.818Z,80.20
2023-05-11T12:54:51.633Z,80.10
2023-05-11T12:57:26.162Z,80.00
2023-05-11T13:00:12.936Z,80.20
2023-05-11T13:02:58.332Z,80.20
2023-05-11T13:05:26.009Z,80.20
2023-05-11T13:08:03.333Z,80.00
2023-05-11T13:10:33.202Z,80.00
2023-05-11T13:12:59.855Z,79.90
2023-05-11T13:15:28.452Z,79.80
2023-05-11T13:17:56.593Z,80.00
2023-05-11T13:20:26.756Z,80.20
2023-05-11T13:23:05.917Z,80.30
2023-05-11T13:25:33.225Z,80.20
2023-05-11T13:28:01.653Z,80.20
2023-05-11T13:30:29.030Z,80.10
2023-05-11T13:32:55.906Z,80.20
2023-05-11T13:35:22.925Z,80.10
2023-05-11T13:37:49.680Z,79.90
2023-05-11T13:40:17.697Z,79.90
2023-05-11T13:42:44.348Z,79.70
2023-05-11T13:45:14.326Z,79.70
2023-05-11T13:47:43.163Z,79.80
2023-05-11T13:50:11.952Z,79.90
2023-05-11T13:52:40.454Z,80.00
2023-05-11T13:55:07.436Z,79.70
2023-05-11T13:57:36.730Z,79.90
2023-05-11T14:00:03.993Z,80.20
2023-05-11T14:02:38.498Z,80.20
2023-05-11T14:05:05.662Z,80.30
2023-05-11T14:07:45.784Z,80.20
2023-05-11T14:10:14.358Z,80.50
2023-05-11T14:12:41.327Z,80.60
2023-05-11T14:15:08.458Z,80.70
2023-05-11T14:17:35.328Z,80.80
2023-05-11T14:20:02.365Z,80.80
2023-05-11T14:22:29.157Z,81.00
2023-05-11T14:24:56.289Z,80.90
2023-05-11T14:27:23.272Z,80.80
2023-05-11T14:29:51.839Z,80.70
2023-05-11T14:32:19.319Z,80.70
2023-05-11T14:34:46.500Z,80.60
2023-05-11T14:37:13.202Z,80.70
2023-05-11T14:39:40.577Z,80.70
2023-05-11T14:42:07.841Z,80.70
2023-05-11T14:44:35.857Z,80.50
2023-05-11T14:47:02.802Z,80.20
2023-05-11T14:49:29.663Z,80.10
2023-05-11T14:51:57.571Z,80.00
2023-05-11T14:54:24.497Z,80.10
2023-05-11T14:56:55.839Z,80.40
2023-05-11T14:59:27.083Z,80.60
2023-05-11T15:01:53.881Z,80.60
2023-05-11T15:04:20.708Z,80.60
2023-05-11T15:06:47.791Z,80.40
2023-05-11T15:09:14.599Z,80.40
2023-05-11T15:11:41.253Z,80.50
2023-05-11T15:14:08.069Z,80.50
2023-05-11T15:16:34.759Z,81.00
2023-05-11T15:19:01.667Z,80.30
2023-05-11T15:21:28.350Z,80.20
2023-05-11T15:23:55.055Z,80.10
2023-05-11T15:26:22.731Z,80.00
2023-05-11T15:28:49.956Z,79.90
2023-05-11T15:31:16.853Z,80.00
2023-05-11T15:33:44.195Z,79.90
2023-05-11T15:36:14.205Z,79.80
2023-05-11T15:38:41.275Z,80.00
2023-05-11T15:41:08.271Z,80.10
2023-05-11T15:43:35.326Z,80.10
2023-05-11T15:46:04.879Z,80.20
2023-05-11T15:48:31.687Z,80.20
2023-05-11T15:51:02.032Z,80.20
2023-05-11T15:53:29.113Z,80.00
2023-05-11T15:55:56.760Z,80.00
2023-05-11T15:58:23.657Z,80.00
2023-05-11T16:00:50.556Z,80.10
2023-05-11T16:03:17.609Z,80.10
2023-05-11T16:05:47.121Z,80.10
2023-05-11T16:08:14.454Z,80.00
2023-05-11T16:10:41.180Z,80.30
2023-05-11T16:13:08.342Z,80.80
2023-05-11T16:15:35.020Z,81.00
2023-05-11T16:18:04.581Z,81.20
2023-05-11T16:20:33.033Z,81.10
2023-05-11T16:22:59.707Z,81.00
2023-05-11T16:25:27.144Z,80.80
2023-05-11T16:27:54.044Z,80.70
2023-05-11T16:30:24.369Z,80.60
2023-05-11T16:32:52.629Z,80.50
2023-05-11T16:35:19.516Z,80.50
2023-05-11T16:37:47.556Z,80.60
2023-05-11T16:40:14.360Z,80.50
2023-05-11T16:42:41.113Z,81.80
2023-05-11T16:45:08.030Z,81.20
2023-05-11T16:47:35.301Z,81.70
2023-05-11T16:50:02.055Z,81.90
2023-05-11T16:52:28.809Z,81.80
2023-05-11T16:54:58.960Z,81.70
2023-05-11T16:57:26.649Z,81.50
2023-05-11T16:59:53.488Z,81.40
2023-05-11T17:02:20.837Z,81.10
2023-05-11T17:04:47.921Z,80.90
2023-05-11T17:07:16.084Z,80.90
2023-05-11T17:09:43.688Z,81.20
2023-05-11T17:12:11.157Z,81.20
2023-05-11T17:14:38.048Z,81.40
2023-05-11T17:17:06.833Z,82.70
2023-05-11T17:19:34.875Z,82.20
2023-05-11T17:22:02.163Z,82.50
2023-05-11T17:24:29.835Z,82.60
2023-05-11T17:26:56.795Z,82.50
2023-05-11T17:29:23.551Z,82.40
2023-05-11T17:31:51.709Z,82.40
2023-05-11T17:34:19.298Z,82.40
2023-05-11T17:36:46.514Z,82.40
2023-05-11T17:39:13.568Z,82.90
2023-05-11T17:41:40.302Z,82.90
2023-05-11T17:44:07.046Z,83.40
2023-05-11T17:46:34.392Z,83.90
2023-05-11T17:49:01.722Z,84.20
2023-05-11T17:51:28.559Z,84.10
2023-05-11T17:53:56.030Z,83.70
2023-05-11T17:56:23.376Z,83.50
2023-05-11T17:58:51.286Z,83.40
2023-05-11T18:01:18.467Z,83.50
2023-05-11T18:03:45.293Z,83.60
2023-05-11T18:06:12.167Z,83.80
2023-05-11T18:08:38.813Z,83.90
2023-05-11T18:11:07.459Z,84.00
2023-05-11T18:13:35.458Z,84.20
2023-05-11T18:16:03.368Z,84.50
2023-05-11T18:18:30.023Z,84.50
2023-05-11T18:20:57.405Z,84.50
2023-05-11T18:23:24.139Z,84.50
2023-05-11T18:25:50.927Z,84.60
2023-05-11T18:28:17.602Z,84.80
2023-05-11T18:30:44.312Z,84.80
2023-05-11T18:33:11.081Z,84.80
2023-05-11T18:35:40.195Z,84.70
2023-05-11T18:38:07.381Z,85.10
2023-05-11T18:40:34.705Z,85.40
2023-05-11T18:43:02.440Z,85.50
2023-05-11T18:45:30.334Z,85.50
2023-05-11T18:47:57.092Z,85.70
2023-05-11T18:50:23.931Z,86.10
2023-05-11T18:52:50.716Z,86.30
2023-05-11T18:55:17.804Z,86.20
2023-05-11T18:57:44.910Z,86.40
2023-05-11T19:00:11.861Z,86.60
2023-05-11T19:02:38.610Z,86.80
2023-05-11T19:05:05.583Z,87.10
2023-05-11T19:07:32.261Z,87.00
2023-05-11T19:09:59.101Z,86.90
2023-05-11T19:12:25.840Z,86.70
2023-05-11T19:14:56.360Z,86.80
2023-05-11T19:17:23.635Z,86.80
2023-05-11T19:19:51.201Z,87.10
2023-05-11T19:22:20.371Z,87.60
2023-05-11T19:24:47.105Z,87.90
2023-05-11T19:27:15.322Z,88.50
2023-05-11T19:29:42.549Z,88.60
2023-05-11T19:32:09.340Z,88.80
2023-05-11T19:34:36.434Z,89.00
2023-05-11T19:37:03.148Z,89.00
2023-05-11T19:39:29.819Z,89.10
2023-05-11T19:41:56.502Z,89.10
2023-05-11T19:44:23.105Z,89.30
2023-05-11T19:46:49.854Z,89.30
2023-05-11T19:49:17.423Z,89.40
2023-05-11T19:51:44.107Z,89.70
2023-05-11T19:54:11.327Z,89.80
2023-05-11T19:56:38.343Z,90.00
2023-05-11T19:59:04.986Z,89.70
2023-05-11T20:01:31.724Z,89.70
2023-05-11T20:03:59.211Z,90.00
2023-05-11T20:06:26.225Z,90.00
2023-05-11T20:08:53.247Z,89.80
2023-05-11T20:11:21.901Z,89.70
2023-05-11T20:13:49.021Z,89.80
2023-05-11T20:16:15.767Z,89.60
2023-05-11T20:18:42.899Z,89.60
2023-05-11T20:21:09.910Z,90.30
2023-05-11T20:23:37.746Z,90.70
2023-05-11T20:26:04.649Z,90.90
2023-05-11T20:28:31.798Z,91.00
2023-05-11T20:30:58.545Z,90.90
2023-05-11T20:35:55.061Z,90.90
2023-05-11T20:38:22.188Z,91.00
2023-05-11T20:40:48.868Z,91.10
2023-05-11T20:43:16.347Z,91.20
2023-05-11T20:45:43.610Z,91.40
2023-05-11T20:48:10.675Z,91.30
2023-05-11T20:50:39.123Z,91.20
2023-05-11T20:53:06.022Z,91.20
2023-05-11T20:55:32.748Z,91.20
2023-05-11T20:57:59.631Z,91.40
2023-05-11T21:00:26.442Z,91.50
2023-05-11T21:02:53.144Z,91.60
2023-05-11T21:05:20.384Z,91.70
2023-05-11T21:07:47.264Z,91.60
2023-05-11T21:10:14.082Z,91.60
2023-05-11T21:12:40.838Z,91.40
2023-05-11T21:15:07.851Z,91.20
2023-05-11T21:17:35.621Z,91.30
2023-05-11T21:20:04.878Z,91.30
2023-05-11T21:22:33.262Z,91.30
2023-05-11T21:25:00.177Z,91.30
2023-05-11T21:27:26.816Z,91.40
2023-05-11T21:29:53.566Z,91.50
2023-05-11T21:32:20.184Z,91.50
2023-05-11T21:34:47.023Z,91.70
2023-05-11T21:37:14.693Z,91.90
2023-05-11T21:39:41.540Z,91.90
2023-05-11T21:42:08.327Z,91.90
2023-05-11T21:44:35.298Z,91.90
2023-05-11T21:47:02.166Z,91.90
2023-05-11T21:49:28.904Z,92.00
2023-05-11T21:51:55.544Z,92.30
2023-05-11T21:54:22.629Z,92.30
2023-05-11T21:56:49.879Z,92.40
2023-05-11T21:59:17.049Z,92.40
2023-05-11T22:01:43.843Z,92.40
2023-05-11T22:04:10.929Z,92.50
2023-05-11T22:06:40.398Z,92.60
2023-05-11T22:09:07.537Z,92.60
2023-05-11T22:11:34.320Z,92.70
2023-05-11T22:14:01.395Z,92.70
2023-05-11T22:16:28.088Z,92.70
2023-05-11T22:18:54.994Z,92.60
2023-05-11T22:21:21.701Z,92.60
2023-05-11T22:23:48.367Z,92.60
2023-05-11T22:26:15.053Z,92.70
2023-05-11T22:28:41.920Z,92.80
2023-05-11T22:31:08.612Z,92.70
2023-05-11T22:33:35.690Z,92.70
2023-05-11T22:36:02.269Z,92.80
2023-05-11T22:38:28.908Z,92.80
2023-05-11T22:40:55.655Z,92.70
2023-05-11T22:43:22.382Z,92.60
2023-05-11T22:45:49.512Z,92.70
2023-05-11T22:48:16.653Z,92.70
2023-05-11T22:50:47.361Z,92.80
2023-05-11T22:53:14.489Z,92.90
2023-05-11T22:55:41.357Z,92.80
2023-05-11T22:58:08.370Z,92.70
2023-05-11T23:00:35.664Z,92.60
2023-05-11T23:03:03.245Z,92.50
2023-05-11T23:05:30.275Z,92.50
2023-05-11T23:07:59.603Z,92.40
2023-05-11T23:10:29.786Z,92.40
2023-05-11T23:12:56.738Z,92.50
2023-05-11T23:15:23.387Z,92.60
2023-05-11T23:17:50.135Z,92.60
2023-05-11T23:20:17.304Z,92.60
2023-05-11T23:22:44.181Z,92.60
2023-05-11T23:25:10.946Z,92.50
2023-05-11T23:27:37.689Z,92.40
2023-05-11T23:30:04.932Z,92.30
2023-05-11T23:32:31.938Z,92.30
2023-05-11T23:34:58.928Z,92.40
2023-05-11T23:37:25.728Z,92.30
2023-05-11T23:39:52.633Z,92.60
2023-05-11T23:42:19.509Z,92.20
2023-05-11T23:44:46.309Z,92.10
2023-05-11T23:47:13.293Z,92.10
2023-05-11T23:49:40.255Z,92.10
2023-05-11T23:52:07.267Z,92.00
2023-05-11T23:54:33.974Z,92.00
2023-05-11T23:57:01.993Z,92.00
2023-05-11T23:59:28.682Z,91.90
